sensor_id;sensor_type;location;lat;lon;timestamp;P1;durP1;ratioP1;P2;durP2;ratioP2
44222;SDS011;29895;48.804;9.386;2023-06-19T00:00:13;7.05;;;6.13;;
44222;SDS011;29895;48.804;9.386;2023-06-19T00:02:41;11.05;;;6.72;;
44222;SDS011;29895;48.804;9.386;2023-06-19T00:05:08;8.55;;;6.45;;
44222;SDS011;29895;48.804;9.386;2023-06-19T00:07:35;11.35;;;7.32;;
44222;SDS011;29895;48.804;9.386;2023-06-19T00:10:02;8.13;;;6.93;;
44222;SDS011;29895;48.804;9.386;2023-06-19T00:12:28;9.63;;;7.10;;
44222;SDS011;29895;48.804;9.386;2023-06-19T00:14:53;8.40;;;6.70;;
44222;SDS011;29895;48.804;9.386;2023-06-19T00:17:19;10.20;;;6.82;;
44222;SDS011;29895;48.804;9.386;2023-06-19T00:19:45;9.23;;;7.25;;
44222;SDS011;29895;48.804;9.386;2023-06-19T00:22:11;13.05;;;6.97;;
44222;SDS011;29895;48.804;9.386;2023-06-19T00:24:37;8.00;;;6.15;;
44222;SDS011;29895;48.804;9.386;2023-06-19T00:27:03;8.98;;;6.25;;
44222;SDS011;29895;48.804;9.386;2023-06-19T00:29:29;10.98;;;7.18;;
44222;SDS011;29895;48.804;9.386;2023-06-19T00:31:55;12.68;;;7.25;;
44222;SDS011;29895;48.804;9.386;2023-06-19T00:34:20;12.15;;;6.72;;
44222;SDS011;29895;48.804;9.386;2023-06-19T00:36:49;10.15;;;7.30;;
44222;SDS011;29895;48.804;9.386;2023-06-19T00:39:24;12.70;;;6.97;;
44222;SDS011;29895;48.804;9.386;2023-06-19T00:41:51;9.50;;;7.30;;
44222;SDS011;29895;48.804;9.386;2023-06-19T00:44:17;7.30;;;6.55;;
44222;SDS011;29895;48.804;9.386;2023-06-19T00:46:43;8.82;;;7.05;;
44222;SDS011;29895;48.804;9.386;2023-06-19T00:49:09;8.35;;;7.13;;
44222;SDS011;29895;48.804;9.386;2023-06-19T00:51:35;10.07;;;7.40;;
44222;SDS011;29895;48.804;9.386;2023-06-19T00:54:01;8.30;;;6.30;;
44222;SDS011;29895;48.804;9.386;2023-06-19T00:56:27;9.35;;;7.15;;
44222;SDS011;29895;48.804;9.386;2023-06-19T00:58:53;9.82;;;6.75;;
44222;SDS011;29895;48.804;9.386;2023-06-19T01:01:19;9.85;;;6.65;;
44222;SDS011;29895;48.804;9.386;2023-06-19T01:03:46;9.32;;;6.82;;
44222;SDS011;29895;48.804;9.386;2023-06-19T01:06:17;8.43;;;6.90;;
44222;SDS011;29895;48.804;9.386;2023-06-19T01:08:58;7.00;;;6.20;;
44222;SDS011;29895;48.804;9.386;2023-06-19T01:11:40;9.88;;;6.82;;
44222;SDS011;29895;48.804;9.386;2023-06-19T01:14:12;9.18;;;6.93;;
44222;SDS011;29895;48.804;9.386;2023-06-19T01:16:43;13.23;;;6.82;;
44222;SDS011;29895;48.804;9.386;2023-06-19T01:19:10;8.63;;;7.10;;
44222;SDS011;29895;48.804;9.386;2023-06-19T01:21:40;11.20;;;7.18;;
44222;SDS011;29895;48.804;9.386;2023-06-19T01:24:06;9.75;;;6.60;;
44222;SDS011;29895;48.804;9.386;2023-06-19T01:26:32;12.60;;;6.43;;
44222;SDS011;29895;48.804;9.386;2023-06-19T01:28:58;8.00;;;6.32;;
44222;SDS011;29895;48.804;9.386;2023-06-19T01:33:56;8.65;;;6.35;;
44222;SDS011;29895;48.804;9.386;2023-06-19T01:36:23;10.30;;;6.72;;
44222;SDS011;29895;48.804;9.386;2023-06-19T01:38:50;9.40;;;6.68;;
44222;SDS011;29895;48.804;9.386;2023-06-19T01:41:17;9.95;;;6.25;;
44222;SDS011;29895;48.804;9.386;2023-06-19T01:43:45;11.35;;;7.22;;
44222;SDS011;29895;48.804;9.386;2023-06-19T01:46:11;9.70;;;6.82;;
44222;SDS011;29895;48.804;9.386;2023-06-19T01:48:37;7.82;;;6.15;;
44222;SDS011;29895;48.804;9.386;2023-06-19T01:51:03;6.57;;;5.40;;
44222;SDS011;29895;48.804;9.386;2023-06-19T01:53:32;9.35;;;5.72;;
44222;SDS011;29895;48.804;9.386;2023-06-19T01:55:59;12.18;;;5.63;;
44222;SDS011;29895;48.804;9.386;2023-06-19T01:58:25;8.70;;;5.63;;
44222;SDS011;29895;48.804;9.386;2023-06-19T02:00:51;7.55;;;4.78;;
44222;SDS011;29895;48.804;9.386;2023-06-19T02:03:17;7.07;;;5.13;;
44222;SDS011;29895;48.804;9.386;2023-06-19T02:05:42;10.18;;;5.22;;
44222;SDS011;29895;48.804;9.386;2023-06-19T02:08:08;6.85;;;4.47;;
44222;SDS011;29895;48.804;9.386;2023-06-19T02:10:34;6.38;;;4.40;;
44222;SDS011;29895;48.804;9.386;2023-06-19T02:13:00;12.70;;;5.65;;
44222;SDS011;29895;48.804;9.386;2023-06-19T02:15:25;5.85;;;4.70;;
44222;SDS011;29895;48.804;9.386;2023-06-19T02:17:51;6.00;;;5.03;;
44222;SDS011;29895;48.804;9.386;2023-06-19T02:20:23;8.32;;;5.20;;
44222;SDS011;29895;48.804;9.386;2023-06-19T02:22:49;6.35;;;4.88;;
44222;SDS011;29895;48.804;9.386;2023-06-19T02:25:15;5.82;;;5.15;;
44222;SDS011;29895;48.804;9.386;2023-06-19T02:27:41;8.55;;;5.45;;
44222;SDS011;29895;48.804;9.386;2023-06-19T02:30:07;5.85;;;4.80;;
44222;SDS011;29895;48.804;9.386;2023-06-19T02:32:33;8.10;;;5.05;;
44222;SDS011;29895;48.804;9.386;2023-06-19T02:34:58;8.65;;;5.85;;
44222;SDS011;29895;48.804;9.386;2023-06-19T02:37:24;8.10;;;5.38;;
44222;SDS011;29895;48.804;9.386;2023-06-19T02:39:50;11.43;;;5.28;;
44222;SDS011;29895;48.804;9.386;2023-06-19T02:42:15;12.98;;;5.00;;
44222;SDS011;29895;48.804;9.386;2023-06-19T02:44:41;8.50;;;5.22;;
44222;SDS011;29895;48.804;9.386;2023-06-19T02:47:08;7.93;;;5.05;;
44222;SDS011;29895;48.804;9.386;2023-06-19T02:49:34;5.80;;;4.93;;
44222;SDS011;29895;48.804;9.386;2023-06-19T02:52:00;7.03;;;5.03;;
44222;SDS011;29895;48.804;9.386;2023-06-19T02:54:25;5.97;;;5.13;;
44222;SDS011;29895;48.804;9.386;2023-06-19T02:56:51;6.75;;;5.07;;
44222;SDS011;29895;48.804;9.386;2023-06-19T02:59:17;9.95;;;5.32;;
44222;SDS011;29895;48.804;9.386;2023-06-19T03:01:42;9.57;;;5.53;;
44222;SDS011;29895;48.804;9.386;2023-06-19T03:04:08;6.53;;;5.32;;
44222;SDS011;29895;48.804;9.386;2023-06-19T03:06:33;7.68;;;5.43;;
44222;SDS011;29895;48.804;9.386;2023-06-19T03:09:04;5.93;;;4.93;;
44222;SDS011;29895;48.804;9.386;2023-06-19T03:11:36;8.23;;;5.25;;
44222;SDS011;29895;48.804;9.386;2023-06-19T03:14:05;9.15;;;5.43;;
44222;SDS011;29895;48.804;9.386;2023-06-19T03:16:32;8.20;;;5.28;;
44222;SDS011;29895;48.804;9.386;2023-06-19T03:19:01;7.20;;;4.93;;
44222;SDS011;29895;48.804;9.386;2023-06-19T03:21:27;8.32;;;5.85;;
44222;SDS011;29895;48.804;9.386;2023-06-19T03:23:52;9.65;;;5.50;;
44222;SDS011;29895;48.804;9.386;2023-06-19T03:26:18;10.13;;;6.80;;
44222;SDS011;29895;48.804;9.386;2023-06-19T03:28:45;9.40;;;6.30;;
44222;SDS011;29895;48.804;9.386;2023-06-19T03:31:14;6.53;;;5.65;;
44222;SDS011;29895;48.804;9.386;2023-06-19T03:33:40;11.20;;;9.98;;
44222;SDS011;29895;48.804;9.386;2023-06-19T03:36:05;5.32;;;4.80;;
44222;SDS011;29895;48.804;9.386;2023-06-19T03:38:32;7.82;;;5.00;;
44222;SDS011;29895;48.804;9.386;2023-06-19T03:40:58;5.53;;;4.38;;
44222;SDS011;29895;48.804;9.386;2023-06-19T03:43:24;7.05;;;4.78;;
44222;SDS011;29895;48.804;9.386;2023-06-19T03:45:49;5.70;;;4.13;;
44222;SDS011;29895;48.804;9.386;2023-06-19T03:48:15;5.25;;;4.43;;
44222;SDS011;29895;48.804;9.386;2023-06-19T03:50:42;5.40;;;4.18;;
44222;SDS011;29895;48.804;9.386;2023-06-19T03:53:08;4.70;;;4.20;;
44222;SDS011;29895;48.804;9.386;2023-06-19T03:55:33;5.60;;;4.38;;
44222;SDS011;29895;48.804;9.386;2023-06-19T03:57:59;6.88;;;4.65;;
44222;SDS011;29895;48.804;9.386;2023-06-19T04:00:25;5.55;;;4.68;;
44222;SDS011;29895;48.804;9.386;2023-06-19T04:02:51;7.03;;;4.97;;
44222;SDS011;29895;48.804;9.386;2023-06-19T04:05:16;7.18;;;4.72;;
44222;SDS011;29895;48.804;9.386;2023-06-19T04:07:42;4.57;;;3.90;;
44222;SDS011;29895;48.804;9.386;2023-06-19T04:10:08;8.35;;;4.50;;
44222;SDS011;29895;48.804;9.386;2023-06-19T04:12:36;6.88;;;5.65;;
44222;SDS011;29895;48.804;9.386;2023-06-19T04:15:02;8.35;;;5.22;;
44222;SDS011;29895;48.804;9.386;2023-06-19T04:17:28;7.95;;;4.80;;
44222;SDS011;29895;48.804;9.386;2023-06-19T04:19:54;7.72;;;3.95;;
44222;SDS011;29895;48.804;9.386;2023-06-19T04:22:20;5.45;;;3.60;;
44222;SDS011;29895;48.804;9.386;2023-06-19T04:24:45;6.50;;;3.92;;
44222;SDS011;29895;48.804;9.386;2023-06-19T04:27:11;5.80;;;3.95;;
44222;SDS011;29895;48.804;9.386;2023-06-19T04:29:37;7.13;;;3.83;;
44222;SDS011;29895;48.804;9.386;2023-06-19T04:32:02;10.40;;;4.38;;
44222;SDS011;29895;48.804;9.386;2023-06-19T04:34:36;7.35;;;4.38;;
44222;SDS011;29895;48.804;9.386;2023-06-19T04:37:07;6.93;;;3.97;;
44222;SDS011;29895;48.804;9.386;2023-06-19T04:39:33;6.35;;;4.60;;
44222;SDS011;29895;48.804;9.386;2023-06-19T04:41:59;6.57;;;4.38;;
44222;SDS011;29895;48.804;9.386;2023-06-19T04:44:25;9.85;;;4.78;;
44222;SDS011;29895;48.804;9.386;2023-06-19T04:46:51;11.43;;;5.10;;
44222;SDS011;29895;48.804;9.386;2023-06-19T04:49:25;5.75;;;4.65;;
44222;SDS011;29895;48.804;9.386;2023-06-19T04:51:55;7.68;;;5.20;;
44222;SDS011;29895;48.804;9.386;2023-06-19T04:54:22;8.75;;;4.38;;
44222;SDS011;29895;48.804;9.386;2023-06-19T04:56:47;7.90;;;4.35;;
44222;SDS011;29895;48.804;9.386;2023-06-19T04:59:13;7.55;;;4.22;;
44222;SDS011;29895;48.804;9.386;2023-06-19T05:01:43;6.57;;;4.38;;
44222;SDS011;29895;48.804;9.386;2023-06-19T05:04:09;6.03;;;4.38;;
44222;SDS011;29895;48.804;9.386;2023-06-19T05:06:36;7.18;;;4.75;;
44222;SDS011;29895;48.804;9.386;2023-06-19T05:09:02;6.95;;;4.70;;
44222;SDS011;29895;48.804;9.386;2023-06-19T05:11:28;5.95;;;4.00;;
44222;SDS011;29895;48.804;9.386;2023-06-19T05:13:53;6.25;;;4.28;;
44222;SDS011;29895;48.804;9.386;2023-06-19T05:16:19;5.60;;;4.68;;
44222;SDS011;29895;48.804;9.386;2023-06-19T05:18:45;6.88;;;4.70;;
44222;SDS011;29895;48.804;9.386;2023-06-19T05:21:11;7.80;;;5.05;;
44222;SDS011;29895;48.804;9.386;2023-06-19T05:23:37;6.88;;;4.43;;
44222;SDS011;29895;48.804;9.386;2023-06-19T05:26:06;6.50;;;5.10;;
44222;SDS011;29895;48.804;9.386;2023-06-19T05:28:32;9.02;;;4.88;;
44222;SDS011;29895;48.804;9.386;2023-06-19T05:30:57;14.75;;;5.18;;
44222;SDS011;29895;48.804;9.386;2023-06-19T05:33:23;7.50;;;4.45;;
44222;SDS011;29895;48.804;9.386;2023-06-19T05:35:49;5.72;;;4.10;;
44222;SDS011;29895;48.804;9.386;2023-06-19T05:38:19;5.72;;;3.80;;
44222;SDS011;29895;48.804;9.386;2023-06-19T05:40:45;7.35;;;4.40;;
44222;SDS011;29895;48.804;9.386;2023-06-19T05:43:11;5.25;;;4.03;;
44222;SDS011;29895;48.804;9.386;2023-06-19T05:45:37;7.03;;;4.97;;
44222;SDS011;29895;48.804;9.386;2023-06-19T05:48:03;7.15;;;4.78;;
44222;SDS011;29895;48.804;9.386;2023-06-19T05:50:29;5.78;;;4.35;;
44222;SDS011;29895;48.804;9.386;2023-06-19T05:52:55;8.63;;;4.40;;
44222;SDS011;29895;48.804;9.386;2023-06-19T05:55:21;5.80;;;4.82;;
44222;SDS011;29895;48.804;9.386;2023-06-19T05:57:49;6.75;;;4.30;;
44222;SDS011;29895;48.804;9.386;2023-06-19T06:00:15;11.30;;;4.60;;
44222;SDS011;29895;48.804;9.386;2023-06-19T06:02:41;5.13;;;4.30;;
44222;SDS011;29895;48.804;9.386;2023-06-19T06:05:07;4.90;;;4.38;;
44222;SDS011;29895;48.804;9.386;2023-06-19T06:07:36;4.55;;;3.72;;
44222;SDS011;29895;48.804;9.386;2023-06-19T06:10:02;8.20;;;3.85;;
44222;SDS011;29895;48.804;9.386;2023-06-19T06:12:28;4.40;;;3.60;;
44222;SDS011;29895;48.804;9.386;2023-06-19T06:14:53;4.70;;;3.42;;
44222;SDS011;29895;48.804;9.386;2023-06-19T06:17:19;6.45;;;4.18;;
44222;SDS011;29895;48.804;9.386;2023-06-19T06:19:45;4.82;;;3.13;;
44222;SDS011;29895;48.804;9.386;2023-06-19T06:22:10;5.38;;;3.40;;
44222;SDS011;29895;48.804;9.386;2023-06-19T06:24:36;4.55;;;3.28;;
44222;SDS011;29895;48.804;9.386;2023-06-19T06:27:01;8.98;;;3.40;;
44222;SDS011;29895;48.804;9.386;2023-06-19T06:29:27;4.70;;;3.70;;
44222;SDS011;29895;48.804;9.386;2023-06-19T06:32:02;8.02;;;4.00;;
44222;SDS011;29895;48.804;9.386;2023-06-19T06:34:32;10.38;;;3.40;;
44222;SDS011;29895;48.804;9.386;2023-06-19T06:36:59;7.53;;;3.13;;
44222;SDS011;29895;48.804;9.386;2023-06-19T06:39:25;5.35;;;3.58;;
44222;SDS011;29895;48.804;9.386;2023-06-19T06:41:50;4.72;;;3.38;;
44222;SDS011;29895;48.804;9.386;2023-06-19T06:44:16;4.60;;;3.33;;
44222;SDS011;29895;48.804;9.386;2023-06-19T06:46:42;5.32;;;3.63;;
44222;SDS011;29895;48.804;9.386;2023-06-19T06:49:08;5.28;;;3.35;;
44222;SDS011;29895;48.804;9.386;2023-06-19T06:51:33;3.85;;;3.40;;
44222;SDS011;29895;48.804;9.386;2023-06-19T06:53:59;3.50;;;3.20;;
44222;SDS011;29895;48.804;9.386;2023-06-19T06:56:25;4.40;;;3.35;;
44222;SDS011;29895;48.804;9.386;2023-06-19T06:58:51;3.75;;;3.20;;
44222;SDS011;29895;48.804;9.386;2023-06-19T07:01:17;4.90;;;3.53;;
44222;SDS011;29895;48.804;9.386;2023-06-19T07:03:42;4.72;;;3.55;;
44222;SDS011;29895;48.804;9.386;2023-06-19T07:06:08;5.53;;;3.28;;
44222;SDS011;29895;48.804;9.386;2023-06-19T07:08:34;4.72;;;3.08;;
44222;SDS011;29895;48.804;9.386;2023-06-19T07:10:59;3.08;;;2.78;;
44222;SDS011;29895;48.804;9.386;2023-06-19T07:13:25;5.60;;;2.90;;
44222;SDS011;29895;48.804;9.386;2023-06-19T07:15:52;4.93;;;3.50;;
44222;SDS011;29895;48.804;9.386;2023-06-19T07:18:17;3.60;;;3.30;;
44222;SDS011;29895;48.804;9.386;2023-06-19T07:20:43;3.53;;;3.17;;
44222;SDS011;29895;48.804;9.386;2023-06-19T07:23:09;5.05;;;3.15;;
44222;SDS011;29895;48.804;9.386;2023-06-19T07:25:35;6.00;;;3.25;;
44222;SDS011;29895;48.804;9.386;2023-06-19T07:28:01;4.65;;;2.80;;
44222;SDS011;29895;48.804;9.386;2023-06-19T07:30:29;4.25;;;2.92;;
44222;SDS011;29895;48.804;9.386;2023-06-19T07:32:55;8.02;;;3.60;;
44222;SDS011;29895;48.804;9.386;2023-06-19T07:35:21;3.28;;;2.80;;
44222;SDS011;29895;48.804;9.386;2023-06-19T07:37:46;3.83;;;3.40;;
44222;SDS011;29895;48.804;9.386;2023-06-19T07:40:12;3.95;;;3.42;;
44222;SDS011;29895;48.804;9.386;2023-06-19T07:42:38;4.85;;;2.90;;
44222;SDS011;29895;48.804;9.386;2023-06-19T07:45:04;3.58;;;2.80;;
44222;SDS011;29895;48.804;9.386;2023-06-19T07:47:30;3.53;;;2.42;;
44222;SDS011;29895;48.804;9.386;2023-06-19T07:49:55;2.75;;;2.38;;
44222;SDS011;29895;48.804;9.386;2023-06-19T07:52:21;5.10;;;2.80;;
44222;SDS011;29895;48.804;9.386;2023-06-19T07:54:54;4.55;;;2.88;;
44222;SDS011;29895;48.804;9.386;2023-06-19T07:57:21;3.03;;;2.60;;
44222;SDS011;29895;48.804;9.386;2023-06-19T07:59:48;5.53;;;2.80;;
44222;SDS011;29895;48.804;9.386;2023-06-19T08:02:14;3.17;;;2.50;;
44222;SDS011;29895;48.804;9.386;2023-06-19T08:04:40;3.80;;;2.40;;
44222;SDS011;29895;48.804;9.386;2023-06-19T08:07:06;4.38;;;2.80;;
44222;SDS011;29895;48.804;9.386;2023-06-19T08:09:31;2.85;;;2.17;;
44222;SDS011;29895;48.804;9.386;2023-06-19T08:11:57;5.07;;;2.47;;
44222;SDS011;29895;48.804;9.386;2023-06-19T08:14:23;7.65;;;2.60;;
44222;SDS011;29895;48.804;9.386;2023-06-19T08:16:49;4.72;;;2.70;;
44222;SDS011;29895;48.804;9.386;2023-06-19T08:19:14;2.25;;;2.05;;
44222;SDS011;29895;48.804;9.386;2023-06-19T08:21:40;6.15;;;2.13;;
44222;SDS011;29895;48.804;9.386;2023-06-19T08:24:06;2.45;;;2.25;;
44222;SDS011;29895;48.804;9.386;2023-06-19T08:26:31;4.40;;;2.00;;
44222;SDS011;29895;48.804;9.386;2023-06-19T08:28:57;3.63;;;2.45;;
44222;SDS011;29895;48.804;9.386;2023-06-19T08:31:22;7.93;;;2.35;;
44222;SDS011;29895;48.804;9.386;2023-06-19T08:33:53;2.77;;;2.47;;
44222;SDS011;29895;48.804;9.386;2023-06-19T08:36:22;4.10;;;2.20;;
44222;SDS011;29895;48.804;9.386;2023-06-19T08:38:48;2.90;;;2.00;;
44222;SDS011;29895;48.804;9.386;2023-06-19T08:41:18;3.47;;;2.13;;
44222;SDS011;29895;48.804;9.386;2023-06-19T08:43:44;3.72;;;2.42;;
44222;SDS011;29895;48.804;9.386;2023-06-19T08:46:11;2.47;;;1.98;;
44222;SDS011;29895;48.804;9.386;2023-06-19T08:48:39;3.60;;;2.60;;
44222;SDS011;29895;48.804;9.386;2023-06-19T08:51:06;3.33;;;2.47;;
44222;SDS011;29895;48.804;9.386;2023-06-19T08:53:36;3.22;;;2.53;;
44222;SDS011;29895;48.804;9.386;2023-06-19T08:56:08;2.30;;;2.00;;
44222;SDS011;29895;48.804;9.386;2023-06-19T08:58:34;2.75;;;2.22;;
44222;SDS011;29895;48.804;9.386;2023-06-19T09:01:00;4.75;;;2.08;;
44222;SDS011;29895;48.804;9.386;2023-06-19T09:03:25;2.60;;;2.08;;
44222;SDS011;29895;48.804;9.386;2023-06-19T09:05:51;4.35;;;2.13;;
44222;SDS011;29895;48.804;9.386;2023-06-19T09:08:17;3.67;;;2.25;;
44222;SDS011;29895;48.804;9.386;2023-06-19T09:10:57;6.65;;;2.38;;
44222;SDS011;29895;48.804;9.386;2023-06-19T09:13:24;2.30;;;2.10;;
44222;SDS011;29895;48.804;9.386;2023-06-19T09:15:57;3.80;;;2.20;;
44222;SDS011;29895;48.804;9.386;2023-06-19T09:18:31;4.93;;;2.37;;
44222;SDS011;29895;48.804;9.386;2023-06-19T09:21:07;2.67;;;2.33;;
44222;SDS011;29895;48.804;9.386;2023-06-19T09:23:40;3.10;;;2.30;;
44222;SDS011;29895;48.804;9.386;2023-06-19T09:26:06;4.22;;;2.67;;
44222;SDS011;29895;48.804;9.386;2023-06-19T09:28:32;3.83;;;2.63;;
44222;SDS011;29895;48.804;9.386;2023-06-19T09:30:58;2.50;;;2.30;;
44222;SDS011;29895;48.804;9.386;2023-06-19T09:33:27;5.40;;;3.00;;
44222;SDS011;29895;48.804;9.386;2023-06-19T09:35:55;4.03;;;2.50;;
44222;SDS011;29895;48.804;9.386;2023-06-19T09:38:26;3.28;;;2.55;;
44222;SDS011;29895;48.804;9.386;2023-06-19T09:40:54;4.45;;;2.30;;
44222;SDS011;29895;48.804;9.386;2023-06-19T09:43:25;3.08;;;2.70;;
44222;SDS011;29895;48.804;9.386;2023-06-19T09:45:57;3.97;;;2.40;;
44222;SDS011;29895;48.804;9.386;2023-06-19T09:48:27;4.22;;;2.53;;
44222;SDS011;29895;48.804;9.386;2023-06-19T09:50:59;5.47;;;2.33;;
44222;SDS011;29895;48.804;9.386;2023-06-19T09:53:36;3.15;;;2.58;;
44222;SDS011;29895;48.804;9.386;2023-06-19T09:56:05;3.38;;;2.47;;
44222;SDS011;29895;48.804;9.386;2023-06-19T09:58:30;3.75;;;2.47;;
44222;SDS011;29895;48.804;9.386;2023-06-19T10:00:57;5.10;;;2.83;;
44222;SDS011;29895;48.804;9.386;2023-06-19T10:03:31;3.55;;;2.50;;
44222;SDS011;29895;48.804;9.386;2023-06-19T10:05:58;3.53;;;2.78;;
44222;SDS011;29895;48.804;9.386;2023-06-19T10:08:31;3.28;;;2.70;;
44222;SDS011;29895;48.804;9.386;2023-06-19T10:11:04;3.55;;;3.25;;
44222;SDS011;29895;48.804;9.386;2023-06-19T10:13:31;2.90;;;2.60;;
44222;SDS011;29895;48.804;9.386;2023-06-19T10:15:58;2.78;;;2.30;;
44222;SDS011;29895;48.804;9.386;2023-06-19T10:18:24;4.07;;;3.00;;
44222;SDS011;29895;48.804;9.386;2023-06-19T10:20:51;4.90;;;2.40;;
44222;SDS011;29895;48.804;9.386;2023-06-19T10:23:22;6.07;;;3.17;;
44222;SDS011;29895;48.804;9.386;2023-06-19T10:28:26;4.18;;;2.63;;
44222;SDS011;29895;48.804;9.386;2023-06-19T10:31:06;4.95;;;3.00;;
44222;SDS011;29895;48.804;9.386;2023-06-19T10:33:36;3.20;;;2.90;;
44222;SDS011;29895;48.804;9.386;2023-06-19T10:36:15;3.20;;;2.80;;
44222;SDS011;29895;48.804;9.386;2023-06-19T10:38:45;3.08;;;2.78;;
44222;SDS011;29895;48.804;9.386;2023-06-19T10:41:17;3.90;;;2.88;;
44222;SDS011;29895;48.804;9.386;2023-06-19T10:43:57;5.05;;;2.70;;
44222;SDS011;29895;48.804;9.386;2023-06-19T10:46:31;3.65;;;2.95;;
44222;SDS011;29895;48.804;9.386;2023-06-19T10:48:58;4.53;;;2.47;;
44222;SDS011;29895;48.804;9.386;2023-06-19T10:51:38;3.85;;;2.90;;
44222;SDS011;29895;48.804;9.386;2023-06-19T10:54:05;4.60;;;2.78;;
44222;SDS011;29895;48.804;9.386;2023-06-19T10:56:32;4.88;;;2.72;;
44222;SDS011;29895;48.804;9.386;2023-06-19T10:59:06;3.17;;;2.88;;
44222;SDS011;29895;48.804;9.386;2023-06-19T11:01:37;2.85;;;2.55;;
44222;SDS011;29895;48.804;9.386;2023-06-19T11:04:07;3.72;;;2.70;;
44222;SDS011;29895;48.804;9.386;2023-06-19T11:06:35;5.28;;;2.80;;
44222;SDS011;29895;48.804;9.386;2023-06-19T11:09:08;4.28;;;2.53;;
44222;SDS011;29895;48.804;9.386;2023-06-19T11:11:37;5.85;;;2.47;;
44222;SDS011;29895;48.804;9.386;2023-06-19T11:14:03;3.40;;;2.63;;
44222;SDS011;29895;48.804;9.386;2023-06-19T11:16:29;3.85;;;2.90;;
44222;SDS011;29895;48.804;9.386;2023-06-19T11:18:56;4.63;;;2.53;;
44222;SDS011;29895;48.804;9.386;2023-06-19T11:21:29;2.67;;;2.35;;
44222;SDS011;29895;48.804;9.386;2023-06-19T11:23:57;4.93;;;2.90;;
44222;SDS011;29895;48.804;9.386;2023-06-19T11:26:24;3.33;;;3.03;;
44222;SDS011;29895;48.804;9.386;2023-06-19T11:28:50;4.13;;;2.72;;
44222;SDS011;29895;48.804;9.386;2023-06-19T11:31:15;5.80;;;2.92;;
44222;SDS011;29895;48.804;9.386;2023-06-19T11:33:41;4.68;;;3.30;;
44222;SDS011;29895;48.804;9.386;2023-06-19T11:36:07;6.15;;;3.17;;
44222;SDS011;29895;48.804;9.386;2023-06-19T11:38:33;4.00;;;2.80;;
44222;SDS011;29895;48.804;9.386;2023-06-19T11:41:03;4.15;;;3.17;;
44222;SDS011;29895;48.804;9.386;2023-06-19T11:43:32;3.85;;;3.38;;
44222;SDS011;29895;48.804;9.386;2023-06-19T11:46:03;3.83;;;3.05;;
44222;SDS011;29895;48.804;9.386;2023-06-19T11:48:29;5.32;;;3.15;;
44222;SDS011;29895;48.804;9.386;2023-06-19T11:50:55;4.00;;;3.10;;
44222;SDS011;29895;48.804;9.386;2023-06-19T11:53:21;3.28;;;2.97;;
44222;SDS011;29895;48.804;9.386;2023-06-19T11:55:49;4.75;;;3.03;;
44222;SDS011;29895;48.804;9.386;2023-06-19T11:58:15;4.32;;;3.33;;
44222;SDS011;29895;48.804;9.386;2023-06-19T12:00:41;5.47;;;3.30;;
44222;SDS011;29895;48.804;9.386;2023-06-19T12:03:07;3.15;;;2.85;;
44222;SDS011;29895;48.804;9.386;2023-06-19T12:05:34;3.22;;;2.92;;
44222;SDS011;29895;48.804;9.386;2023-06-19T12:08:00;3.50;;;3.20;;
44222;SDS011;29895;48.804;9.386;2023-06-19T12:10:29;3.97;;;3.60;;
44222;SDS011;29895;48.804;9.386;2023-06-19T12:12:55;3.50;;;3.20;;
44222;SDS011;29895;48.804;9.386;2023-06-19T12:15:21;6.35;;;3.10;;
44222;SDS011;29895;48.804;9.386;2023-06-19T12:17:47;3.85;;;3.42;;
44222;SDS011;29895;48.804;9.386;2023-06-19T12:20:13;5.38;;;3.22;;
44222;SDS011;29895;48.804;9.386;2023-06-19T12:22:39;4.40;;;3.00;;
44222;SDS011;29895;48.804;9.386;2023-06-19T12:25:06;4.97;;;3.10;;
44222;SDS011;29895;48.804;9.386;2023-06-19T12:27:31;4.30;;;3.60;;
44222;SDS011;29895;48.804;9.386;2023-06-19T12:29:57;3.90;;;3.40;;
44222;SDS011;29895;48.804;9.386;2023-06-19T12:32:23;3.50;;;3.20;;
44222;SDS011;29895;48.804;9.386;2023-06-19T12:34:49;5.40;;;3.28;;
44222;SDS011;29895;48.804;9.386;2023-06-19T12:37:19;3.53;;;3.22;;
44222;SDS011;29895;48.804;9.386;2023-06-19T12:39:45;3.22;;;3.00;;
44222;SDS011;29895;48.804;9.386;2023-06-19T12:42:12;8.32;;;2.88;;
44222;SDS011;29895;48.804;9.386;2023-06-19T12:44:40;3.47;;;3.17;;
44222;SDS011;29895;48.804;9.386;2023-06-19T12:47:07;5.70;;;3.10;;
44222;SDS011;29895;48.804;9.386;2023-06-19T12:49:33;3.63;;;3.33;;
44222;SDS011;29895;48.804;9.386;2023-06-19T12:51:59;3.50;;;3.20;;
44222;SDS011;29895;48.804;9.386;2023-06-19T12:54:25;6.97;;;3.40;;
44222;SDS011;29895;48.804;9.386;2023-06-19T12:56:51;5.50;;;3.50;;
44222;SDS011;29895;48.804;9.386;2023-06-19T12:59:17;3.40;;;3.10;;
44222;SDS011;29895;48.804;9.386;2023-06-19T13:01:44;4.22;;;3.63;;
44222;SDS011;29895;48.804;9.386;2023-06-19T13:04:11;4.82;;;3.28;;
44222;SDS011;29895;48.804;9.386;2023-06-19T13:06:37;3.63;;;3.17;;
44222;SDS011;29895;48.804;9.386;2023-06-19T13:09:05;4.60;;;3.05;;
44222;SDS011;29895;48.804;9.386;2023-06-19T13:11:31;4.18;;;3.30;;
44222;SDS011;29895;48.804;9.386;2023-06-19T13:13:59;4.88;;;3.33;;
44222;SDS011;29895;48.804;9.386;2023-06-19T13:16:25;3.83;;;3.47;;
44222;SDS011;29895;48.804;9.386;2023-06-19T13:18:51;4.40;;;3.17;;
44222;SDS011;29895;48.804;9.386;2023-06-19T13:21:17;3.28;;;2.90;;
44222;SDS011;29895;48.804;9.386;2023-06-19T13:23:42;3.38;;;3.08;;
44222;SDS011;29895;48.804;9.386;2023-06-19T13:26:08;3.40;;;3.10;;
44222;SDS011;29895;48.804;9.386;2023-06-19T13:28:34;4.47;;;3.20;;
44222;SDS011;29895;48.804;9.386;2023-06-19T13:31:00;3.40;;;2.90;;
44222;SDS011;29895;48.804;9.386;2023-06-19T13:33:26;3.60;;;3.30;;
44222;SDS011;29895;48.804;9.386;2023-06-19T13:35:51;6.60;;;3.75;;
44222;SDS011;29895;48.804;9.386;2023-06-19T13:38:17;12.13;;;3.35;;
44222;SDS011;29895;48.804;9.386;2023-06-19T13:40:43;4.25;;;3.63;;
44222;SDS011;29895;48.804;9.386;2023-06-19T13:43:09;3.60;;;3.30;;
44222;SDS011;29895;48.804;9.386;2023-06-19T13:45:35;5.38;;;3.30;;
44222;SDS011;29895;48.804;9.386;2023-06-19T13:48:03;4.22;;;3.05;;
44222;SDS011;29895;48.804;9.386;2023-06-19T13:50:30;4.20;;;3.80;;
44222;SDS011;29895;48.804;9.386;2023-06-19T13:52:57;3.30;;;3.00;;
44222;SDS011;29895;48.804;9.386;2023-06-19T13:55:23;3.08;;;2.80;;
44222;SDS011;29895;48.804;9.386;2023-06-19T13:57:49;7.05;;;3.10;;
44222;SDS011;29895;48.804;9.386;2023-06-19T14:00:15;3.83;;;3.13;;
44222;SDS011;29895;48.804;9.386;2023-06-19T14:02:41;3.70;;;3.20;;
44222;SDS011;29895;48.804;9.386;2023-06-19T14:05:07;3.42;;;2.85;;
44222;SDS011;29895;48.804;9.386;2023-06-19T14:07:37;5.40;;;3.47;;
44222;SDS011;29895;48.804;9.386;2023-06-19T14:10:03;3.20;;;2.88;;
44222;SDS011;29895;48.804;9.386;2023-06-19T14:12:29;2.90;;;2.70;;
44222;SDS011;29895;48.804;9.386;2023-06-19T14:14:55;3.47;;;2.95;;
44222;SDS011;29895;48.804;9.386;2023-06-19T14:17:21;3.00;;;2.80;;
44222;SDS011;29895;48.804;9.386;2023-06-19T14:19:47;4.63;;;2.90;;
44222;SDS011;29895;48.804;9.386;2023-06-19T14:22:13;4.93;;;3.10;;
44222;SDS011;29895;48.804;9.386;2023-06-19T14:24:39;4.18;;;3.08;;
44222;SDS011;29895;48.804;9.386;2023-06-19T14:27:04;3.13;;;2.90;;
44222;SDS011;29895;48.804;9.386;2023-06-19T14:29:30;6.45;;;2.90;;
44222;SDS011;29895;48.804;9.386;2023-06-19T14:31:56;2.55;;;2.35;;
44222;SDS011;29895;48.804;9.386;2023-06-19T14:34:21;5.95;;;2.70;;
44222;SDS011;29895;48.804;9.386;2023-06-19T14:36:47;4.32;;;3.03;;
44222;SDS011;29895;48.804;9.386;2023-06-19T14:39:14;3.95;;;2.90;;
44222;SDS011;29895;48.804;9.386;2023-06-19T14:41:40;3.67;;;3.38;;
44222;SDS011;29895;48.804;9.386;2023-06-19T14:44:05;3.95;;;3.42;;
44222;SDS011;29895;48.804;9.386;2023-06-19T14:46:31;5.50;;;3.15;;
44222;SDS011;29895;48.804;9.386;2023-06-19T14:48:57;3.17;;;2.85;;